sensor_id;sensor_type;location;lat;lon;timestamp;P1;durP1;ratioP1;P2;durP2;ratioP2
1400;SDS011;46518;48.842;8.926;2023-10-08T00:01:37;5.18;;;3.97;;
1400;SDS011;46518;48.842;8.926;2023-10-08T00:04:09;4.00;;;3.42;;
1400;SDS011;46518;48.842;8.926;2023-10-08T00:06:38;7.07;;;3.70;;
1400;SDS011;46518;48.842;8.926;2023-10-08T00:09:06;7.30;;;3.35;;
1400;SDS011;46518;48.842;8.926;2023-10-08T00:11:37;4.13;;;3.53;;
1400;SDS011;46518;48.842;8.926;2023-10-08T00:14:07;4.28;;;3.80;;
1400;SDS011;46518;48.842;8.926;2023-10-08T00:16:36;6.55;;;3.78;;
1400;SDS011;46518;48.842;8.926;2023-10-08T00:19:06;5.90;;;3.45;;
1400;SDS011;46518;48.842;8.926;2023-10-08T00:21:41;4.13;;;3.40;;
1400;SDS011;46518;48.842;8.926;2023-10-08T00:24:11;3.97;;;3.60;;
1400;SDS011;46518;48.842;8.926;2023-10-08T00:26:41;3.97;;;3.53;;
1400;SDS011;46518;48.842;8.926;2023-10-08T00:29:10;4.63;;;3.55;;
1400;SDS011;46518;48.842;8.926;2023-10-08T00:31:48;12.38;;;4.25;;
1400;SDS011;46518;48.842;8.926;2023-10-08T00:34:17;4.95;;;3.58;;
1400;SDS011;46518;48.842;8.926;2023-10-08T00:36:47;4.70;;;3.28;;
1400;SDS011;46518;48.842;8.926;2023-10-08T00:39:17;5.45;;;3.33;;
1400;SDS011;46518;48.842;8.926;2023-10-08T00:41:51;6.35;;;3.10;;
1400;SDS011;46518;48.842;8.926;2023-10-08T00:44:26;4.07;;;3.30;;
1400;SDS011;46518;48.842;8.926;2023-10-08T00:46:57;5.72;;;3.28;;
1400;SDS011;46518;48.842;8.926;2023-10-08T00:49:28;4.93;;;3.63;;
1400;SDS011;46518;48.842;8.926;2023-10-08T00:52:14;5.70;;;4.22;;
1400;SDS011;46518;48.842;8.926;2023-10-08T00:54:56;7.15;;;4.07;;
1400;SDS011;46518;48.842;8.926;2023-10-08T00:57:43;4.20;;;3.45;;
1400;SDS011;46518;48.842;8.926;2023-10-08T01:00:19;6.40;;;3.38;;
1400;SDS011;46518;48.842;8.926;2023-10-08T01:02:49;7.45;;;3.80;;
1400;SDS011;46518;48.842;8.926;2023-10-08T01:05:27;6.93;;;3.53;;
1400;SDS011;46518;48.842;8.926;2023-10-08T01:08:14;4.78;;;3.10;;
1400;SDS011;46518;48.842;8.926;2023-10-08T01:10:48;4.78;;;3.42;;
1400;SDS011;46518;48.842;8.926;2023-10-08T01:13:31;9.23;;;4.22;;
1400;SDS011;46518;48.842;8.926;2023-10-08T01:16:09;5.35;;;2.90;;
1400;SDS011;46518;48.842;8.926;2023-10-08T01:18:38;5.55;;;3.13;;
1400;SDS011;46518;48.842;8.926;2023-10-08T01:21:10;5.50;;;3.63;;
1400;SDS011;46518;48.842;8.926;2023-10-08T01:23:47;5.80;;;3.60;;
1400;SDS011;46518;48.842;8.926;2023-10-08T01:26:19;8.30;;;3.85;;
1400;SDS011;46518;48.842;8.926;2023-10-08T01:28:50;9.35;;;4.15;;
1400;SDS011;46518;48.842;8.926;2023-10-08T01:31:19;4.03;;;2.90;;
1400;SDS011;46518;48.842;8.926;2023-10-08T01:33:47;4.20;;;3.25;;
1400;SDS011;46518;48.842;8.926;2023-10-08T01:36:17;5.55;;;3.33;;
1400;SDS011;46518;48.842;8.926;2023-10-08T01:38:47;4.38;;;3.10;;
1400;SDS011;46518;48.842;8.926;2023-10-08T01:41:16;5.10;;;3.53;;
1400;SDS011;46518;48.842;8.926;2023-10-08T01:43:46;5.35;;;3.25;;
1400;SDS011;46518;48.842;8.926;2023-10-08T01:46:16;4.35;;;3.00;;
1400;SDS011;46518;48.842;8.926;2023-10-08T01:48:49;3.72;;;3.03;;
1400;SDS011;46518;48.842;8.926;2023-10-08T01:51:22;4.38;;;3.17;;
1400;SDS011;46518;48.842;8.926;2023-10-08T01:53:56;5.18;;;3.35;;
1400;SDS011;46518;48.842;8.926;2023-10-08T01:56:25;4.22;;;2.95;;
1400;SDS011;46518;48.842;8.926;2023-10-08T01:58:53;7.32;;;3.53;;
1400;SDS011;46518;48.842;8.926;2023-10-08T02:01:22;3.53;;;2.65;;
1400;SDS011;46518;48.842;8.926;2023-10-08T02:03:51;3.55;;;3.08;;
1400;SDS011;46518;48.842;8.926;2023-10-08T02:06:19;5.72;;;2.55;;
1400;SDS011;46518;48.842;8.926;2023-10-08T02:08:48;3.13;;;2.28;;
1400;SDS011;46518;48.842;8.926;2023-10-08T02:11:18;4.35;;;3.70;;
1400;SDS011;46518;48.842;8.926;2023-10-08T02:13:47;4.13;;;3.72;;
1400;SDS011;46518;48.842;8.926;2023-10-08T02:16:17;4.47;;;3.22;;
1400;SDS011;46518;48.842;8.926;2023-10-08T02:18:46;6.10;;;3.17;;
1400;SDS011;46518;48.842;8.926;2023-10-08T02:21:17;5.25;;;3.38;;
1400;SDS011;46518;48.842;8.926;2023-10-08T02:23:45;4.40;;;2.97;;
1400;SDS011;46518;48.842;8.926;2023-10-08T02:26:14;3.28;;;2.45;;
1400;SDS011;46518;48.842;8.926;2023-10-08T02:28:44;4.22;;;3.15;;
1400;SDS011;46518;48.842;8.926;2023-10-08T02:31:12;4.30;;;3.17;;
1400;SDS011;46518;48.842;8.926;2023-10-08T02:33:40;4.10;;;3.35;;
1400;SDS011;46518;48.842;8.926;2023-10-08T02:36:08;5.15;;;2.60;;
1400;SDS011;46518;48.842;8.926;2023-10-08T02:38:38;3.35;;;2.50;;
1400;SDS011;46518;48.842;8.926;2023-10-08T02:41:06;3.58;;;3.10;;
1400;SDS011;46518;48.842;8.926;2023-10-08T02:43:34;4.20;;;2.95;;
1400;SDS011;46518;48.842;8.926;2023-10-08T02:46:04;4.85;;;2.45;;
1400;SDS011;46518;48.842;8.926;2023-10-08T02:48:34;4.57;;;3.00;;
1400;SDS011;46518;48.842;8.926;2023-10-08T02:51:02;4.05;;;3.22;;
1400;SDS011;46518;48.842;8.926;2023-10-08T02:53:40;3.92;;;3.47;;
1400;SDS011;46518;48.842;8.926;2023-10-08T02:56:11;6.20;;;3.03;;
1400;SDS011;46518;48.842;8.926;2023-10-08T02:58:42;3.25;;;2.70;;
1400;SDS011;46518;48.842;8.926;2023-10-08T03:01:12;6.55;;;2.90;;
1400;SDS011;46518;48.842;8.926;2023-10-08T03:03:41;3.35;;;2.53;;
1400;SDS011;46518;48.842;8.926;2023-10-08T03:06:10;3.08;;;2.78;;
1400;SDS011;46518;48.842;8.926;2023-10-08T03:08:41;6.20;;;2.85;;
1400;SDS011;46518;48.842;8.926;2023-10-08T03:11:10;5.05;;;2.17;;
1400;SDS011;46518;48.842;8.926;2023-10-08T03:13:44;8.32;;;2.60;;
1400;SDS011;46518;48.842;8.926;2023-10-08T03:16:15;3.22;;;2.33;;
1400;SDS011;46518;48.842;8.926;2023-10-08T03:18:48;3.67;;;2.70;;
1400;SDS011;46518;48.842;8.926;2023-10-08T03:21:17;7.05;;;3.17;;
1400;SDS011;46518;48.842;8.926;2023-10-08T03:23:51;3.70;;;2.58;;
1400;SDS011;46518;48.842;8.926;2023-10-08T03:26:24;6.03;;;2.90;;
1400;SDS011;46518;48.842;8.926;2023-10-08T03:29:01;3.95;;;3.08;;
1400;SDS011;46518;48.842;8.926;2023-10-08T03:31:36;3.72;;;2.25;;
1400;SDS011;46518;48.842;8.926;2023-10-08T03:34:19;3.47;;;2.42;;
1400;SDS011;46518;48.842;8.926;2023-10-08T03:36:47;4.25;;;2.53;;
1400;SDS011;46518;48.842;8.926;2023-10-08T03:39:17;3.45;;;2.40;;
1400;SDS011;46518;48.842;8.926;2023-10-08T03:41:46;5.55;;;2.85;;
1400;SDS011;46518;48.842;8.926;2023-10-08T03:44:26;3.50;;;2.85;;
1400;SDS011;46518;48.842;8.926;2023-10-08T03:46:58;2.88;;;2.10;;
1400;SDS011;46518;48.842;8.926;2023-10-08T03:49:26;5.55;;;3.13;;
1400;SDS011;46518;48.842;8.926;2023-10-08T03:51:55;4.22;;;2.60;;
1400;SDS011;46518;48.842;8.926;2023-10-08T03:54:24;4.35;;;2.90;;
1400;SDS011;46518;48.842;8.926;2023-10-08T03:57:01;3.85;;;3.00;;
1400;SDS011;46518;48.842;8.926;2023-10-08T03:59:32;6.93;;;2.78;;
1400;SDS011;46518;48.842;8.926;2023-10-08T04:02:03;4.82;;;2.33;;
1400;SDS011;46518;48.842;8.926;2023-10-08T04:04:41;4.13;;;2.38;;
1400;SDS011;46518;48.842;8.926;2023-10-08T04:07:20;3.45;;;2.60;;
1400;SDS011;46518;48.842;8.926;2023-10-08T04:09:55;4.50;;;3.13;;
1400;SDS011;46518;48.842;8.926;2023-10-08T04:12:53;5.25;;;2.50;;
1400;SDS011;46518;48.842;8.926;2023-10-08T04:15:22;3.47;;;2.67;;
1400;SDS011;46518;48.842;8.926;2023-10-08T04:17:51;4.35;;;2.85;;
1400;SDS011;46518;48.842;8.926;2023-10-08T04:20:20;5.30;;;2.85;;
1400;SDS011;46518;48.842;8.926;2023-10-08T04:23:06;3.55;;;2.28;;
1400;SDS011;46518;48.842;8.926;2023-10-08T04:25:41;3.38;;;2.13;;
1400;SDS011;46518;48.842;8.926;2023-10-08T04:28:10;4.57;;;2.92;;
1400;SDS011;46518;48.842;8.926;2023-10-08T04:30:41;5.40;;;3.05;;
1400;SDS011;46518;48.842;8.926;2023-10-08T04:33:13;5.13;;;2.78;;
1400;SDS011;46518;48.842;8.926;2023-10-08T04:35:43;3.83;;;2.60;;
1400;SDS011;46518;48.842;8.926;2023-10-08T04:38:19;4.22;;;2.40;;
1400;SDS011;46518;48.842;8.926;2023-10-08T04:40:49;3.38;;;2.45;;
1400;SDS011;46518;48.842;8.926;2023-10-08T04:43:20;3.33;;;2.55;;
1400;SDS011;46518;48.842;8.926;2023-10-08T04:45:52;4.72;;;2.90;;
1400;SDS011;46518;48.842;8.926;2023-10-08T04:48:22;4.95;;;2.97;;
1400;SDS011;46518;48.842;8.926;2023-10-08T04:50:51;4.43;;;3.22;;
1400;SDS011;46518;48.842;8.926;2023-10-08T04:53:26;5.18;;;2.92;;
1400;SDS011;46518;48.842;8.926;2023-10-08T04:55:59;5.13;;;2.83;;
1400;SDS011;46518;48.842;8.926;2023-10-08T04:58:33;6.00;;;3.17;;
1400;SDS011;46518;48.842;8.926;2023-10-08T05:01:04;5.32;;;2.70;;
1400;SDS011;46518;48.842;8.926;2023-10-08T05:03:56;3.60;;;2.67;;
1400;SDS011;46518;48.842;8.926;2023-10-08T05:06:57;4.38;;;3.28;;
1400;SDS011;46518;48.842;8.926;2023-10-08T05:09:44;3.90;;;2.90;;
1400;SDS011;46518;48.842;8.926;2023-10-08T05:12:19;3.55;;;2.80;;
1400;SDS011;46518;48.842;8.926;2023-10-08T05:15:01;6.97;;;3.35;;
1400;SDS011;46518;48.842;8.926;2023-10-08T05:18:00;4.22;;;2.92;;
1400;SDS011;46518;48.842;8.926;2023-10-08T05:20:42;5.40;;;3.22;;
1400;SDS011;46518;48.842;8.926;2023-10-08T05:23:28;3.08;;;2.30;;
1400;SDS011;46518;48.842;8.926;2023-10-08T05:26:14;4.40;;;2.50;;
1400;SDS011;46518;48.842;8.926;2023-10-08T05:28:57;4.75;;;2.90;;
1400;SDS011;46518;48.842;8.926;2023-10-08T05:31:28;5.38;;;3.70;;
1400;SDS011;46518;48.842;8.926;2023-10-08T05:34:20;5.53;;;3.00;;
1400;SDS011;46518;48.842;8.926;2023-10-08T05:37:00;6.22;;;3.40;;
1400;SDS011;46518;48.842;8.926;2023-10-08T05:39:59;4.50;;;3.20;;
1400;SDS011;46518;48.842;8.926;2023-10-08T05:42:40;4.57;;;2.67;;
1400;SDS011;46518;48.842;8.926;2023-10-08T05:45:16;4.22;;;3.40;;
1400;SDS011;46518;48.842;8.926;2023-10-08T05:48:01;4.75;;;3.33;;
1400;SDS011;46518;48.842;8.926;2023-10-08T05:50:42;6.22;;;3.30;;
1400;SDS011;46518;48.842;8.926;2023-10-08T05:53:23;4.53;;;2.95;;
1400;SDS011;46518;48.842;8.926;2023-10-08T05:56:10;5.28;;;3.15;;
1400;SDS011;46518;48.842;8.926;2023-10-08T05:58:55;8.68;;;3.13;;
1400;SDS011;46518;48.842;8.926;2023-10-08T06:01:41;8.77;;;3.47;;
1400;SDS011;46518;48.842;8.926;2023-10-08T06:04:12;5.35;;;3.60;;
1400;SDS011;46518;48.842;8.926;2023-10-08T06:07:09;8.50;;;3.70;;
1400;SDS011;46518;48.842;8.926;2023-10-08T06:09:48;3.83;;;3.05;;
1400;SDS011;46518;48.842;8.926;2023-10-08T06:12:28;7.32;;;3.42;;
1400;SDS011;46518;48.842;8.926;2023-10-08T06:14:59;6.57;;;3.30;;
1400;SDS011;46518;48.842;8.926;2023-10-08T06:17:38;3.75;;;3.10;;
1400;SDS011;46518;48.842;8.926;2023-10-08T06:20:34;6.32;;;3.55;;
1400;SDS011;46518;48.842;8.926;2023-10-08T06:23:02;5.25;;;3.60;;
1400;SDS011;46518;48.842;8.926;2023-10-08T06:25:35;7.20;;;3.10;;
1400;SDS011;46518;48.842;8.926;2023-10-08T06:28:15;9.02;;;3.67;;
1400;SDS011;46518;48.842;8.926;2023-10-08T06:30:46;7.15;;;4.45;;
1400;SDS011;46518;48.842;8.926;2023-10-08T06:33:15;6.35;;;3.67;;
1400;SDS011;46518;48.842;8.926;2023-10-08T06:35:44;6.90;;;3.75;;
1400;SDS011;46518;48.842;8.926;2023-10-08T06:38:23;5.78;;;4.07;;
1400;SDS011;46518;48.842;8.926;2023-10-08T06:40:55;7.38;;;2.78;;
1400;SDS011;46518;48.842;8.926;2023-10-08T06:43:27;4.13;;;3.28;;
1400;SDS011;46518;48.842;8.926;2023-10-08T06:45:55;4.15;;;2.60;;
1400;SDS011;46518;48.842;8.926;2023-10-08T06:48:25;4.50;;;3.20;;
1400;SDS011;46518;48.842;8.926;2023-10-08T06:50:56;5.35;;;3.80;;
1400;SDS011;46518;48.842;8.926;2023-10-08T06:53:25;6.03;;;3.75;;
1400;SDS011;46518;48.842;8.926;2023-10-08T06:55:58;4.70;;;3.45;;
1400;SDS011;46518;48.842;8.926;2023-10-08T06:58:30;8.70;;;5.28;;
1400;SDS011;46518;48.842;8.926;2023-10-08T07:00:59;4.55;;;3.33;;
1400;SDS011;46518;48.842;8.926;2023-10-08T07:03:32;3.35;;;3.05;;
1400;SDS011;46518;48.842;8.926;2023-10-08T07:06:01;6.22;;;4.00;;
1400;SDS011;46518;48.842;8.926;2023-10-08T07:08:37;7.22;;;4.53;;
1400;SDS011;46518;48.842;8.926;2023-10-08T07:11:10;5.22;;;3.95;;
1400;SDS011;46518;48.842;8.926;2023-10-08T07:13:39;6.38;;;3.10;;
1400;SDS011;46518;48.842;8.926;2023-10-08T07:16:09;6.93;;;3.97;;
1400;SDS011;46518;48.842;8.926;2023-10-08T07:18:38;7.75;;;3.42;;
1400;SDS011;46518;48.842;8.926;2023-10-08T07:21:08;3.95;;;3.60;;
1400;SDS011;46518;48.842;8.926;2023-10-08T07:23:39;5.32;;;3.25;;
1400;SDS011;46518;48.842;8.926;2023-10-08T07:26:24;6.88;;;3.92;;
1400;SDS011;46518;48.842;8.926;2023-10-08T07:29:03;6.28;;;3.72;;
1400;SDS011;46518;48.842;8.926;2023-10-08T07:31:35;5.40;;;3.85;;
1400;SDS011;46518;48.842;8.926;2023-10-08T07:34:08;4.40;;;3.40;;
1400;SDS011;46518;48.842;8.926;2023-10-08T07:36:45;8.05;;;3.70;;
1400;SDS011;46518;48.842;8.926;2023-10-08T07:39:16;4.28;;;3.60;;
1400;SDS011;46518;48.842;8.926;2023-10-08T07:41:54;4.07;;;3.58;;
1400;SDS011;46518;48.842;8.926;2023-10-08T07:44:23;5.93;;;3.85;;
1400;SDS011;46518;48.842;8.926;2023-10-08T07:46:52;6.40;;;3.72;;
1400;SDS011;46518;48.842;8.926;2023-10-08T07:49:21;8.30;;;3.45;;
1400;SDS011;46518;48.842;8.926;2023-10-08T07:51:52;8.32;;;4.35;;
1400;SDS011;46518;48.842;8.926;2023-10-08T07:54:20;6.20;;;3.80;;
1400;SDS011;46518;48.842;8.926;2023-10-08T07:56:51;4.18;;;3.13;;
1400;SDS011;46518;48.842;8.926;2023-10-08T07:59:22;4.95;;;3.60;;
1400;SDS011;46518;48.842;8.926;2023-10-08T08:01:51;7.65;;;3.38;;
1400;SDS011;46518;48.842;8.926;2023-10-08T08:04:20;8.32;;;4.57;;
1400;SDS011;46518;48.842;8.926;2023-10-08T08:06:49;5.65;;;4.50;;
1400;SDS011;46518;48.842;8.926;2023-10-08T08:09:25;4.85;;;3.33;;
1400;SDS011;46518;48.842;8.926;2023-10-08T08:11:53;7.43;;;4.80;;
1400;SDS011;46518;48.842;8.926;2023-10-08T08:14:25;5.57;;;3.88;;
1400;SDS011;46518;48.842;8.926;2023-10-08T08:16:55;6.43;;;4.25;;
1400;SDS011;46518;48.842;8.926;2023-10-08T08:19:40;6.28;;;4.25;;
1400;SDS011;46518;48.842;8.926;2023-10-08T08:22:10;6.95;;;3.83;;
1400;SDS011;46518;48.842;8.926;2023-10-08T08:24:42;5.50;;;4.07;;
1400;SDS011;46518;48.842;8.926;2023-10-08T08:27:12;5.97;;;3.33;;
1400;SDS011;46518;48.842;8.926;2023-10-08T08:29:52;4.80;;;3.67;;
1400;SDS011;46518;48.842;8.926;2023-10-08T08:32:22;6.00;;;3.35;;
1400;SDS011;46518;48.842;8.926;2023-10-08T08:34:51;5.43;;;3.40;;
1400;SDS011;46518;48.842;8.926;2023-10-08T08:37:19;5.95;;;3.50;;
1400;SDS011;46518;48.842;8.926;2023-10-08T08:39:49;5.00;;;3.67;;
1400;SDS011;46518;48.842;8.926;2023-10-08T08:42:19;4.07;;;3.25;;
1400;SDS011;46518;48.842;8.926;2023-10-08T08:44:50;7.03;;;3.60;;
1400;SDS011;46518;48.842;8.926;2023-10-08T08:47:21;6.72;;;4.03;;
1400;SDS011;46518;48.842;8.926;2023-10-08T08:49:51;7.03;;;3.25;;
1400;SDS011;46518;48.842;8.926;2023-10-08T08:52:22;4.45;;;3.05;;
1400;SDS011;46518;48.842;8.926;2023-10-08T08:54:50;5.15;;;3.40;;
1400;SDS011;46518;48.842;8.926;2023-10-08T08:57:19;5.07;;;3.40;;
1400;SDS011;46518;48.842;8.926;2023-10-08T08:59:49;6.25;;;3.78;;
1400;SDS011;46518;48.842;8.926;2023-10-08T09:02:22;4.80;;;3.47;;
1400;SDS011;46518;48.842;8.926;2023-10-08T09:04:50;5.97;;;3.80;;
1400;SDS011;46518;48.842;8.926;2023-10-08T09:07:21;5.88;;;3.55;;
1400;SDS011;46518;48.842;8.926;2023-10-08T09:09:52;6.27;;;3.83;;
1400;SDS011;46518;48.842;8.926;2023-10-08T09:12:26;5.60;;;3.97;;
1400;SDS011;46518;48.842;8.926;2023-10-08T09:15:01;6.53;;;3.80;;
1400;SDS011;46518;48.842;8.926;2023-10-08T09:17:31;5.13;;;3.50;;
1400;SDS011;46518;48.842;8.926;2023-10-08T09:20:00;10.73;;;4.73;;
1400;SDS011;46518;48.842;8.926;2023-10-08T09:22:33;3.23;;;2.73;;
1400;SDS011;46518;48.842;8.926;2023-10-08T09:25:02;5.00;;;3.13;;
1400;SDS011;46518;48.842;8.926;2023-10-08T09:27:33;6.07;;;3.50;;
1400;SDS011;46518;48.842;8.926;2023-10-08T09:30:06;4.13;;;3.67;;
1400;SDS011;46518;48.842;8.926;2023-10-08T09:32:36;4.67;;;3.00;;
1400;SDS011;46518;48.842;8.926;2023-10-08T09:35:07;5.20;;;4.13;;
1400;SDS011;46518;48.842;8.926;2023-10-08T09:37:40;5.83;;;3.67;;
1400;SDS011;46518;48.842;8.926;2023-10-08T09:40:09;5.50;;;3.60;;
1400;SDS011;46518;48.842;8.926;2023-10-08T09:42:39;6.83;;;3.87;;
1400;SDS011;46518;48.842;8.926;2023-10-08T09:45:11;6.90;;;3.20;;
1400;SDS011;46518;48.842;8.926;2023-10-08T09:47:43;9.60;;;3.77;;
1400;SDS011;46518;48.842;8.926;2023-10-08T09:50:19;6.20;;;4.17;;
1400;SDS011;46518;48.842;8.926;2023-10-08T09:52:54;7.83;;;4.47;;
1400;SDS011;46518;48.842;8.926;2023-10-08T09:55:28;6.73;;;4.43;;
1400;SDS011;46518;48.842;8.926;2023-10-08T09:57:57;7.83;;;4.30;;
1400;SDS011;46518;48.842;8.926;2023-10-08T10:00:27;6.57;;;3.93;;
1400;SDS011;46518;48.842;8.926;2023-10-08T10:02:59;9.03;;;4.10;;
1400;SDS011;46518;48.842;8.926;2023-10-08T10:05:29;9.23;;;3.97;;
1400;SDS011;46518;48.842;8.926;2023-10-08T10:07:58;5.80;;;3.63;;
1400;SDS011;46518;48.842;8.926;2023-10-08T10:10:32;8.33;;;4.37;;
1400;SDS011;46518;48.842;8.926;2023-10-08T10:13:02;9.70;;;4.20;;
1400;SDS011;46518;48.842;8.926;2023-10-08T10:15:32;7.53;;;4.20;;
1400;SDS011;46518;48.842;8.926;2023-10-08T10:18:08;7.53;;;4.47;;
1400;SDS011;46518;48.842;8.926;2023-10-08T10:20:44;6.47;;;4.17;;
1400;SDS011;46518;48.842;8.926;2023-10-08T10:23:35;6.57;;;4.10;;
1400;SDS011;46518;48.842;8.926;2023-10-08T10:26:21;6.20;;;3.93;;
1400;SDS011;46518;48.842;8.926;2023-10-08T10:31:50;8.10;;;4.03;;
1400;SDS011;46518;48.842;8.926;2023-10-08T10:34:21;8.40;;;4.23;;
1400;SDS011;46518;48.842;8.926;2023-10-08T10:36:53;9.10;;;4.83;;
1400;SDS011;46518;48.842;8.926;2023-10-08T10:39:29;7.63;;;4.60;;
1400;SDS011;46518;48.842;8.926;2023-10-08T10:42:01;7.50;;;4.70;;
1400;SDS011;46518;48.842;8.926;2023-10-08T10:44:33;10.40;;;5.60;;
1400;SDS011;46518;48.842;8.926;2023-10-08T10:47:04;9.53;;;3.87;;
1400;SDS011;46518;48.842;8.926;2023-10-08T10:49:50;9.27;;;4.90;;
1400;SDS011;46518;48.842;8.926;2023-10-08T10:52:22;11.57;;;4.67;;
1400;SDS011;46518;48.842;8.926;2023-10-08T10:55:01;8.57;;;5.00;;
1400;SDS011;46518;48.842;8.926;2023-10-08T10:57:47;12.80;;;4.57;;
1400;SDS011;46518;48.842;8.926;2023-10-08T11:00:23;13.50;;;4.97;;
1400;SDS011;46518;48.842;8.926;2023-10-08T11:03:07;11.30;;;5.53;;
1400;SDS011;46518;48.842;8.926;2023-10-08T11:05:44;11.50;;;3.80;;
1400;SDS011;46518;48.842;8.926;2023-10-08T11:08:18;9.73;;;4.83;;
1400;SDS011;46518;48.842;8.926;2023-10-08T11:10:50;6.23;;;4.13;;
1400;SDS011;46518;48.842;8.926;2023-10-08T11:13:20;9.03;;;4.63;;
1400;SDS011;46518;48.842;8.926;2023-10-08T11:15:55;9.53;;;4.80;;
1400;SDS011;46518;48.842;8.926;2023-10-08T11:18:27;7.80;;;5.53;;
1400;SDS011;46518;48.842;8.926;2023-10-08T11:21:05;14.67;;;5.43;;
1400;SDS011;46518;48.842;8.926;2023-10-08T11:23:44;10.90;;;5.43;;
1400;SDS011;46518;48.842;8.926;2023-10-08T11:26:22;12.17;;;5.80;;
1400;SDS011;46518;48.842;8.926;2023-10-08T11:29:00;11.13;;;5.60;;
1400;SDS011;46518;48.842;8.926;2023-10-08T11:31:30;8.27;;;4.50;;
1400;SDS011;46518;48.842;8.926;2023-10-08T11:34:03;7.40;;;4.20;;
1400;SDS011;46518;48.842;8.926;2023-10-08T11:36:37;8.90;;;4.83;;
1400;SDS011;46518;48.842;8.926;2023-10-08T11:39:16;9.10;;;4.60;;
1400;SDS011;46518;48.842;8.926;2023-10-08T11:41:56;9.70;;;5.07;;
1400;SDS011;46518;48.842;8.926;2023-10-08T11:44:30;13.73;;;4.87;;
1400;SDS011;46518;48.842;8.926;2023-10-08T11:47:03;9.23;;;4.57;;
1400;SDS011;46518;48.842;8.926;2023-10-08T11:49:40;9.73;;;4.73;;
1400;SDS011;46518;48.842;8.926;2023-10-08T11:52:14;8.93;;;5.13;;
1400;SDS011;46518;48.842;8.926;2023-10-08T11:54:44;15.37;;;5.53;;
1400;SDS011;46518;48.842;8.926;2023-10-08T11:57:15;16.00;;;6.00;;
1400;SDS011;46518;48.842;8.926;2023-10-08T11:59:49;12.07;;;5.30;;
1400;SDS011;46518;48.842;8.926;2023-10-08T12:02:22;11.07;;;4.67;;
1400;SDS011;46518;48.842;8.926;2023-10-08T12:04:52;9.17;;;5.03;;
1400;SDS011;46518;48.842;8.926;2023-10-08T12:07:25;9.90;;;4.70;;
1400;SDS011;46518;48.842;8.926;2023-10-08T12:09:54;12.73;;;5.20;;
1400;SDS011;46518;48.842;8.926;2023-10-08T12:12:23;18.73;;;5.80;;
1400;SDS011;46518;48.842;8.926;2023-10-08T12:14:51;11.13;;;5.33;;
1400;SDS011;46518;48.842;8.926;2023-10-08T12:17:21;15.20;;;5.07;;
1400;SDS011;46518;48.842;8.926;2023-10-08T12:20:06;11.40;;;5.60;;
1400;SDS011;46518;48.842;8.926;2023-10-08T12:22:49;8.33;;;4.40;;
1400;SDS011;46518;48.842;8.926;2023-10-08T12:25:17;9.83;;;4.30;;
1400;SDS011;46518;48.842;8.926;2023-10-08T12:27:46;17.73;;;5.53;;
1400;SDS011;46518;48.842;8.926;2023-10-08T12:30:16;10.17;;;4.50;;
1400;SDS011;46518;48.842;8.926;2023-10-08T12:32:44;9.47;;;4.10;;
1400;SDS011;46518;48.842;8.926;2023-10-08T12:35:14;10.03;;;5.00;;
1400;SDS011;46518;48.842;8.926;2023-10-08T12:37:46;8.50;;;5.17;;
1400;SDS011;46518;48.842;8.926;2023-10-08T12:40:14;11.20;;;4.80;;
1400;SDS011;46518;48.842;8.926;2023-10-08T12:42:50;12.40;;;4.90;;
1400;SDS011;46518;48.842;8.926;2023-10-08T12:45:19;19.20;;;5.43;;
1400;SDS011;46518;48.842;8.926;2023-10-08T12:47:48;11.03;;;5.07;;
1400;SDS011;46518;48.842;8.926;2023-10-08T12:50:18;9.97;;;4.60;;
1400;SDS011;46518;48.842;8.926;2023-10-08T12:52:56;11.53;;;5.60;;
1400;SDS011;46518;48.842;8.926;2023-10-08T12:55:30;10.20;;;4.30;;
1400;SDS011;46518;48.842;8.926;2023-10-08T12:58:03;14.47;;;5.80;;
1400;SDS011;46518;48.842;8.926;2023-10-08T13:00:36;9.73;;;5.57;;
1400;SDS011;46518;48.842;8.926;2023-10-08T13:03:08;10.97;;;4.10;;
1400;SDS011;46518;48.842;8.926;2023-10-08T13:05:43;8.80;;;4.93;;
1400;SDS011;46518;48.842;8.926;2023-10-08T13:08:12;8.87;;;4.43;;
1400;SDS011;46518;48.842;8.926;2023-10-08T13:10:40;20.43;;;5.50;;
1400;SDS011;46518;48.842;8.926;2023-10-08T13:13:11;9.53;;;4.37;;
1400;SDS011;46518;48.842;8.926;2023-10-08T13:15:39;11.50;;;4.70;;
1400;SDS011;46518;48.842;8.926;2023-10-08T13:18:08;12.17;;;5.03;;
1400;SDS011;46518;48.842;8.926;2023-10-08T13:20:37;9.13;;;5.70;;
1400;SDS011;46518;48.842;8.926;2023-10-08T13:23:08;8.33;;;4.50;;
1400;SDS011;46518;48.842;8.926;2023-10-08T13:25:37;10.17;;;5.00;;
1400;SDS011;46518;48.842;8.926;2023-10-08T13:28:06;10.00;;;4.47;;
1400;SDS011;46518;48.842;8.926;2023-10-08T13:30:38;6.00;;;3.50;;
1400;SDS011;46518;48.842;8.926;2023-10-08T13:33:06;7.90;;;4.50;;
1400;SDS011;46518;48.842;8.926;2023-10-08T13:35:36;13.07;;;5.07;;
1400;SDS011;46518;48.842;8.926;2023-10-08T13:38:04;9.43;;;4.40;;
1400;SDS011;46518;48.842;8.926;2023-10-08T13:40:37;11.20;;;4.77;;
1400;SDS011;46518;48.842;8.926;2023-10-08T13:43:10;8.20;;;4.73;;
1400;SDS011;46518;48.842;8.926;2023-10-08T13:45:39;11.63;;;5.73;;
1400;SDS011;46518;48.842;8.926;2023-10-08T13:48:08;11.07;;;4.77;;
1400;SDS011;46518;48.842;8.926;2023-10-08T13:50:41;11.37;;;5.50;;
1400;SDS011;46518;48.842;8.926;2023-10-08T13:53:10;14.00;;;5.13;;
1400;SDS011;46518;48.842;8.926;2023-10-08T13:55:41;14.67;;;4.67;;
1400;SDS011;46518;48.842;8.926;2023-10-08T13:58:12;16.57;;;5.17;;
1400;SDS011;46518;48.842;8.926;2023-10-08T14:00:40;9.57;;;4.73;;
1400;SDS011;46518;48.842;8.926;2023-10-08T14:03:09;11.53;;;5.00;;
1400;SDS011;46518;48.842;8.926;2023-10-08T14:05:38;13.43;;;5.83;;
1400;SDS011;46518;48.842;8.926;2023-10-08T14:08:06;13.77;;;5.47;;
1400;SDS011;46518;48.842;8.926;2023-10-08T14:10:43;21.80;;;5.70;;
1400;SDS011;46518;48.842;8.926;2023-10-08T14:13:14;13.67;;;5.37;;
1400;SDS011;46518;48.842;8.926;2023-10-08T14:15:46;12.67;;;4.87;;
1400;SDS011;46518;48.842;8.926;2023-10-08T14:18:16;12.40;;;5.37;;
1400;SDS011;46518;48.842;8.926;2023-10-08T14:20:52;9.63;;;4.40;;
1400;SDS011;46518;48.842;8.926;2023-10-08T14:23:21;12.57;;;4.90;;
1400;SDS011;46518;48.842;8.926;2023-10-08T14:25:53;13.80;;;5.53;;
1400;SDS011;46518;48.842;8.926;2023-10-08T14:28:29;10.87;;;5.13;;
1400;SDS011;46518;48.842;8.926;2023-10-08T14:31:07;7.83;;;4.80;;
1400;SDS011;46518;48.842;8.926;2023-10-08T14:33:42;15.13;;;4.67;;
1400;SDS011;46518;48.842;8.926;2023-10-08T14:36:22;8.93;;;4.07;;
1400;SDS011;46518;48.842;8.926;2023-10-08T14:39:11;8.00;;;4.37;;
1400;SDS011;46518;48.842;8.926;2023-10-08T14:42:12;11.43;;;5.17;;
1400;SDS011;46518;48.842;8.926;2023-10-08T14:44:58;6.60;;;4.07;;
1400;SDS011;46518;48.842;8.926;2023-10-08T14:47:26;7.10;;;4.70;;
1400;SDS011;46518;48.842;8.926;2023-10-08T14:49:54;10.10;;;4.70;;
1400;SDS011;46518;48.842;8.926;2023-10-08T14:52:23;8.70;;;4.13;;
1400;SDS011;46518;48.842;8.926;2023-10-08T14:54:52;7.77;;;4.33;;
1400;SDS011;46518;48.842;8.926;2023-10-08T14:57:22;8.10;;;4.30;;
1400;SDS011;46518;48.842;8.926;2023-10-08T14:59:53;6.90;;;4.10;;
1400;SDS011;46518;48.842;8.926;2023-10-08T15:02:21;12.90;;;5.10;;
1400;SDS011;46518;48.842;8.926;2023-10-08T15:04:55;6.67;;;4.53;;
1400;SDS011;46518;48.842;8.926;2023-10-08T15:07:24;9.30;;;4.07;;
1400;SDS011;46518;48.842;8.926;2023-10-08T15:09:54;9.03;;;5.30;;
1400;SDS011;46518;48.842;8.926;2023-10-08T15:12:25;7.23;;;3.93;;
1400;SDS011;46518;48.842;8.926;2023-10-08T15:14:54;10.50;;;5.07;;
1400;SDS011;46518;48.842;8.926;2023-10-08T15:17:23;11.03;;;4.70;;
1400;SDS011;46518;48.842;8.926;2023-10-08T15:19:51;8.37;;;4.20;;
1400;SDS011;46518;48.842;8.926;2023-10-08T15:22:23;8.70;;;4.27;;
1400;SDS011;46518;48.842;8.926;2023-10-08T15:24:52;8.53;;;4.40;;
1400;SDS011;46518;48.842;8.926;2023-10-08T15:27:20;11.87;;;4.50;;
1400;SDS011;46518;48.842;8.926;2023-10-08T15:29:49;11.27;;;4.10;;
1400;SDS011;46518;48.842;8.926;2023-10-08T15:32:18;7.43;;;3.83;;
1400;SDS011;46518;48.842;8.926;2023-10-08T15:34:46;7.77;;;4.53;;
1400;SDS011;46518;48.842;8.926;2023-10-08T15:37:15;6.47;;;4.03;;